BAW2231 EGKK-VTBS
Flight info
| Callsign | BAW2231 |
|---|---|
| Flight time | N/A |
| Altitude | 35000 |
| Route | ODVIK2Z ODVIK Y311 DVR UL9 KONAN UL607 FERDI DCT REMBA DCT LIRSU DCT BANUX DCT BABEG DCT KONIN DCT ERKIR DCT KFT DCT PODET DCT ZINPE DCT ETIDA DCT EKSOL DCT UDROS UM859 EVKAM/N0476F370 UM859 KARDE UN644 ROLIN DCT FOQUS DCT LAGAS DCT DISKA M737 VERCA M747 BODKA P130 MAMED B449 RANAH L750 RIKAD/N0479F390 L750 MERUN G452 LKN R460 CEA DCT DOPID P646 IBITA/N0478F410 P646 PTN N895 BETNO G463 TARED DCT WILLA WILLA1C |
| Aircraft | B772/H-SDE1E3FGHIJ3J5J6M1M2P2RWXYZ/LB1D1 |
Departure
| Time | 2026-05-07 21:14 |
|---|---|
| Airport | London Gatwick Airport (EGKK) |
Arrival
| Time | N/A |
|---|---|
| Airport | Suvarnabhumi Airport (VTBS) |
| Time | Latitude | Longitude | Altitude | Speed | Heading |
|---|---|---|---|---|---|
| 2026-05-07 20:41 | 51.15874 | -0.16920 | 217 ft | 0 kts | 128° |
| 2026-05-07 20:41 | 51.15875 | -0.16922 | 218 ft | 0 kts | 129° |
| 2026-05-07 20:56 | 51.15877 | -0.16927 | 220 ft | 3 kts | 129° |
| 2026-05-07 20:56 | 51.15894 | -0.16959 | 216 ft | 4 kts | 129° |
| 2026-05-07 20:57 | 51.15908 | -0.16986 | 223 ft | 4 kts | 132° |
| 2026-05-07 20:57 | 51.15927 | -0.17008 | 219 ft | 4 kts | 180° |
| 2026-05-07 20:57 | 51.15944 | -0.16994 | 223 ft | 4 kts | 236° |
| 2026-05-07 20:57 | 51.15958 | -0.16961 | 217 ft | 1 kts | 236° |
| 2026-05-07 20:58 | 51.15958 | -0.16960 | 218 ft | 0 kts | 236° |
| 2026-05-07 21:01 | 51.15949 | -0.16981 | 221 ft | 5 kts | 233° |
| 2026-05-07 21:01 | 51.15915 | -0.17034 | 217 ft | 8 kts | 217° |
| 2026-05-07 21:02 | 51.15862 | -0.17072 | 214 ft | 8 kts | 195° |
| 2026-05-07 21:02 | 51.15818 | -0.17112 | 217 ft | 7 kts | 231° |
| 2026-05-07 21:02 | 51.15805 | -0.17181 | 218 ft | 6 kts | 258° |
| 2026-05-07 21:02 | 51.15792 | -0.17285 | 219 ft | 13 kts | 258° |
| 2026-05-07 21:03 | 51.15779 | -0.17375 | 213 ft | 13 kts | 257° |
| 2026-05-07 21:03 | 51.15760 | -0.17514 | 217 ft | 13 kts | 257° |
| 2026-05-07 21:03 | 51.15739 | -0.17658 | 215 ft | 14 kts | 258° |
| 2026-05-07 21:03 | 51.15719 | -0.17808 | 218 ft | 14 kts | 258° |
| 2026-05-07 21:04 | 51.15698 | -0.17964 | 214 ft | 15 kts | 257° |
| 2026-05-07 21:04 | 51.15676 | -0.18123 | 216 ft | 15 kts | 257° |
| 2026-05-07 21:04 | 51.15637 | -0.18226 | 217 ft | 10 kts | 205° |
| 2026-05-07 21:04 | 51.15566 | -0.18214 | 214 ft | 11 kts | 168° |
| 2026-05-07 21:05 | 51.15488 | -0.18186 | 216 ft | 10 kts | 164° |
| 2026-05-07 21:05 | 51.15410 | -0.18153 | 216 ft | 13 kts | 165° |
| 2026-05-07 21:05 | 51.15315 | -0.18117 | 210 ft | 15 kts | 167° |
| 2026-05-07 21:05 | 51.15231 | -0.18089 | 217 ft | 8 kts | 183° |
| 2026-05-07 21:06 | 51.15199 | -0.18162 | 217 ft | 11 kts | 252° |
| 2026-05-07 21:06 | 51.15184 | -0.18307 | 215 ft | 16 kts | 262° |
| 2026-05-07 21:06 | 51.15162 | -0.18503 | 215 ft | 20 kts | 257° |
| 2026-05-07 21:06 | 51.15132 | -0.18710 | 210 ft | 16 kts | 256° |
| 2026-05-07 21:07 | 51.15106 | -0.18885 | 214 ft | 15 kts | 257° |
| 2026-05-07 21:07 | 51.15088 | -0.19032 | 216 ft | 14 kts | 258° |
| 2026-05-07 21:07 | 51.15064 | -0.19197 | 208 ft | 16 kts | 259° |
| 2026-05-07 21:07 | 51.15041 | -0.19384 | 218 ft | 18 kts | 258° |
| 2026-05-07 21:08 | 51.15013 | -0.19586 | 219 ft | 20 kts | 255° |
| 2026-05-07 21:08 | 51.14979 | -0.19807 | 216 ft | 21 kts | 259° |
| 2026-05-07 21:08 | 51.14948 | -0.20049 | 213 ft | 23 kts | 258° |
| 2026-05-07 21:08 | 51.14911 | -0.20305 | 217 ft | 24 kts | 256° |
| 2026-05-07 21:09 | 51.14874 | -0.20574 | 215 ft | 25 kts | 257° |
| 2026-05-07 21:09 | 51.14837 | -0.20848 | 214 ft | 24 kts | 258° |
| 2026-05-07 21:09 | 51.14803 | -0.21085 | 215 ft | 18 kts | 255° |
| 2026-05-07 21:09 | 51.14774 | -0.21244 | 208 ft | 12 kts | 257° |
| 2026-05-07 21:10 | 51.14760 | -0.21336 | 212 ft | 5 kts | 256° |
| 2026-05-07 21:10 | 51.14754 | -0.21372 | 218 ft | 2 kts | 252° |
| 2026-05-07 21:10 | 51.14738 | -0.21398 | 218 ft | 6 kts | 208° |
| 2026-05-07 21:10 | 51.14690 | -0.21389 | 216 ft | 7 kts | 151° |
| 2026-05-07 21:11 | 51.14665 | -0.21355 | 217 ft | 3 kts | 138° |
| 2026-05-07 21:11 | 51.14647 | -0.21338 | 216 ft | 3 kts | 158° |
| 2026-05-07 21:11 | 51.14632 | -0.21333 | 216 ft | 0 kts | 167° |
| 2026-05-07 21:12 | 51.14592 | -0.21318 | 218 ft | 9 kts | 166° |
| 2026-05-07 21:12 | 51.14541 | -0.21268 | 215 ft | 9 kts | 134° |
| 2026-05-07 21:13 | 51.14519 | -0.21190 | 214 ft | 4 kts | 92° |
| 2026-05-07 21:13 | 51.14522 | -0.21161 | 211 ft | 10 kts | 80° |
| 2026-05-07 21:13 | 51.14573 | -0.20785 | 214 ft | 63 kts | 78° |
| 2026-05-07 21:13 | 51.14717 | -0.19738 | 215 ft | 128 kts | 78° |
| 2026-05-07 21:14 | 51.14949 | -0.18069 | 231 ft | 181 kts | 78° |
| 2026-05-07 21:14 | 51.15212 | -0.16118 | 867 ft | 180 kts | 79° |
| 2026-05-07 21:14 | 51.15473 | -0.14138 | 1642 ft | 182 kts | 79° |
| 2026-05-07 21:14 | 51.15750 | -0.12128 | 2032 ft | 191 kts | 79° |
| 2026-05-07 21:15 | 51.16051 | -0.09966 | 2194 ft | 208 kts | 79° |
| 2026-05-07 21:15 | 51.16378 | -0.07617 | 2362 ft | 226 kts | 79° |
| 2026-05-07 21:15 | 51.16733 | -0.05073 | 2599 ft | 241 kts | 78° |
| 2026-05-07 21:15 | 51.16978 | -0.02389 | 2983 ft | 248 kts | 90° |
| 2026-05-07 21:16 | 51.16923 | 0.00396 | 3403 ft | 254 kts | 93° |
| 2026-05-07 21:16 | 51.16826 | 0.03188 | 3937 ft | 257 kts | 93° |
| 2026-05-07 21:16 | 51.16737 | 0.06046 | 4485 ft | 259 kts | 92° |
| 2026-05-07 21:16 | 51.16674 | 0.08942 | 4939 ft | 264 kts | 92° |
| 2026-05-07 21:17 | 51.16623 | 0.11871 | 5295 ft | 265 kts | 92° |
| 2026-05-07 21:17 | 51.16569 | 0.14811 | 5661 ft | 266 kts | 92° |
| 2026-05-07 21:17 | 51.16541 | 0.17792 | 5856 ft | 274 kts | 90° |
| 2026-05-07 21:17 | 51.16553 | 0.20828 | 5821 ft | 272 kts | 90° |
| 2026-05-07 21:18 | 51.16568 | 0.23824 | 5805 ft | 269 kts | 90° |
| 2026-05-07 21:18 | 51.16576 | 0.26802 | 5827 ft | 269 kts | 90° |
| 2026-05-07 21:18 | 51.16582 | 0.29804 | 6305 ft | 273 kts | 90° |
| 2026-05-07 21:18 | 51.16586 | 0.32847 | 6813 ft | 276 kts | 90° |
| 2026-05-07 21:19 | 51.16590 | 0.35927 | 7282 ft | 280 kts | 90° |
| 2026-05-07 21:19 | 51.16594 | 0.39012 | 7789 ft | 283 kts | 90° |
| 2026-05-07 21:19 | 51.16597 | 0.42161 | 8324 ft | 285 kts | 90° |
| 2026-05-07 21:19 | 51.16599 | 0.45341 | 8800 ft | 289 kts | 90° |
| 2026-05-07 21:20 | 51.16600 | 0.48563 | 9274 ft | 292 kts | 90° |
| 2026-05-07 21:20 | 51.16599 | 0.51811 | 9771 ft | 294 kts | 91° |
| 2026-05-07 21:20 | 51.16593 | 0.55101 | 10064 ft | 303 kts | 91° |
| 2026-05-07 21:20 | 51.16595 | 0.58563 | 10196 ft | 320 kts | 90° |
| 2026-05-07 21:21 | 51.16596 | 0.62193 | 10354 ft | 337 kts | 91° |
| 2026-05-07 21:21 | 51.16593 | 0.65971 | 10522 ft | 354 kts | 91° |
| 2026-05-07 21:21 | 51.16586 | 0.69969 | 10918 ft | 366 kts | 91° |
| 2026-05-07 21:21 | 51.16578 | 0.74075 | 11466 ft | 373 kts | 91° |
| 2026-05-07 21:22 | 51.16569 | 0.78225 | 12164 ft | 376 kts | 91° |
| 2026-05-07 21:22 | 51.16557 | 0.82408 | 12983 ft | 378 kts | 91° |
| 2026-05-07 21:22 | 51.16549 | 0.86616 | 13747 ft | 381 kts | 92° |
| 2026-05-07 21:22 | 51.16537 | 0.90866 | 14350 ft | 387 kts | 92° |
| 2026-05-07 21:23 | 51.16521 | 0.95192 | 15031 ft | 391 kts | 92° |
| 2026-05-07 21:23 | 51.16500 | 0.99546 | 15703 ft | 395 kts | 91° |
| 2026-05-07 21:23 | 51.16484 | 1.03928 | 16353 ft | 399 kts | 91° |
| 2026-05-07 21:23 | 51.16464 | 1.08377 | 16974 ft | 404 kts | 91° |
| 2026-05-07 21:24 | 51.16441 | 1.12877 | 17620 ft | 408 kts | 91° |
| 2026-05-07 21:24 | 51.16417 | 1.17364 | 18276 ft | 413 kts | 91° |
| 2026-05-07 21:24 | 51.16390 | 1.21966 | 18847 ft | 417 kts | 91° |
| 2026-05-07 21:24 | 51.16363 | 1.26604 | 19441 ft | 420 kts | 91° |
| 2026-05-07 21:25 | 51.16332 | 1.31295 | 20046 ft | 424 kts | 91° |
| 2026-05-07 21:25 | 51.16292 | 1.36010 | 20629 ft | 427 kts | 93° |
| 2026-05-07 21:25 | 51.16111 | 1.40750 | 21207 ft | 430 kts | 95° |
| 2026-05-07 21:25 | 51.15876 | 1.45525 | 21771 ft | 434 kts | 96° |
| 2026-05-07 21:26 | 51.15629 | 1.50343 | 22328 ft | 438 kts | 96° |
| 2026-05-07 21:26 | 51.15383 | 1.55148 | 22898 ft | 442 kts | 96° |
| 2026-05-07 21:26 | 51.15136 | 1.60033 | 23439 ft | 445 kts | 96° |
| 2026-05-07 21:26 | 51.14889 | 1.64973 | 23912 ft | 449 kts | 96° |
| 2026-05-07 21:27 | 51.14640 | 1.69951 | 24351 ft | 452 kts | 96° |
| 2026-05-07 21:27 | 51.14389 | 1.74942 | 24794 ft | 454 kts | 96° |
| 2026-05-07 21:27 | 51.14135 | 1.79975 | 25227 ft | 457 kts | 96° |
| 2026-05-07 21:27 | 51.13876 | 1.85055 | 25641 ft | 460 kts | 96° |
| 2026-05-07 21:28 | 51.13614 | 1.90147 | 26044 ft | 463 kts | 96° |
| 2026-05-07 21:28 | 51.13349 | 1.95260 | 26409 ft | 466 kts | 96° |
| 2026-05-07 21:28 | 51.13077 | 2.00437 | 26771 ft | 469 kts | 96° |
| 2026-05-07 21:28 | 51.12802 | 2.05630 | 27141 ft | 472 kts | 96° |
| 2026-05-07 21:29 | 51.12524 | 2.10849 | 27509 ft | 474 kts | 96° |
| 2026-05-07 21:29 | 51.12243 | 2.16083 | 27858 ft | 477 kts | 96° |
| 2026-05-07 21:29 | 51.11958 | 2.21358 | 28192 ft | 479 kts | 96° |
| 2026-05-07 21:29 | 51.11674 | 2.26582 | 28505 ft | 481 kts | 96° |
| 2026-05-07 21:30 | 51.11381 | 2.31921 | 28815 ft | 484 kts | 96° |
| 2026-05-07 21:30 | 51.11085 | 2.37272 | 29115 ft | 486 kts | 96° |
| 2026-05-07 21:30 | 51.10784 | 2.42650 | 29387 ft | 489 kts | 96° |
| 2026-05-07 21:30 | 51.10481 | 2.48055 | 29651 ft | 491 kts | 96° |
| 2026-05-07 21:31 | 51.10174 | 2.53485 | 29916 ft | 493 kts | 96° |
| 2026-05-07 21:31 | 51.09863 | 2.58931 | 30172 ft | 495 kts | 96° |
| 2026-05-07 21:31 | 51.09480 | 2.64402 | 30381 ft | 496 kts | 100° |
| 2026-05-07 21:31 | 51.08788 | 2.69776 | 30572 ft | 496 kts | 107° |
| 2026-05-07 21:32 | 51.07816 | 2.75042 | 30759 ft | 497 kts | 108° |
| 2026-05-07 21:32 | 51.06819 | 2.80318 | 30988 ft | 497 kts | 108° |
| 2026-05-07 21:32 | 51.05842 | 2.85516 | 31271 ft | 497 kts | 108° |